sensor_id;sensor_type;location;lat;lon;timestamp;P1;durP1;ratioP1;P2;durP2;ratioP2
40044;SDS011;25735;48.122;11.422;2022-12-07T00:01:15;10.43;;;8.10;;
40044;SDS011;25735;48.122;11.422;2022-12-07T00:03:42;12.07;;;8.65;;
40044;SDS011;25735;48.122;11.422;2022-12-07T00:06:10;9.60;;;7.47;;
40044;SDS011;25735;48.122;11.422;2022-12-07T00:08:37;10.43;;;7.93;;
40044;SDS011;25735;48.122;11.422;2022-12-07T00:11:04;9.50;;;7.82;;
40044;SDS011;25735;48.122;11.422;2022-12-07T00:13:31;10.48;;;7.82;;
40044;SDS011;25735;48.122;11.422;2022-12-07T00:16:15;10.93;;;7.93;;
40044;SDS011;25735;48.122;11.422;2022-12-07T00:18:42;11.65;;;8.40;;
40044;SDS011;25735;48.122;11.422;2022-12-07T00:23:38;10.77;;;7.00;;
40044;SDS011;25735;48.122;11.422;2022-12-07T00:26:08;9.23;;;7.47;;
40044;SDS011;25735;48.122;11.422;2022-12-07T00:28:40;9.30;;;7.07;;
40044;SDS011;25735;48.122;11.422;2022-12-07T00:31:07;10.18;;;7.82;;
40044;SDS011;25735;48.122;11.422;2022-12-07T00:33:34;11.65;;;8.30;;
40044;SDS011;25735;48.122;11.422;2022-12-07T00:36:00;11.27;;;7.85;;
40044;SDS011;25735;48.122;11.422;2022-12-07T00:38:28;10.13;;;7.30;;
40044;SDS011;25735;48.122;11.422;2022-12-07T00:40:58;10.57;;;7.47;;
40044;SDS011;25735;48.122;11.422;2022-12-07T00:43:24;12.13;;;7.88;;
40044;SDS011;25735;48.122;11.422;2022-12-07T00:45:50;10.02;;;7.50;;
40044;SDS011;25735;48.122;11.422;2022-12-07T00:48:16;9.75;;;6.80;;
40044;SDS011;25735;48.122;11.422;2022-12-07T00:50:41;10.70;;;7.40;;
40044;SDS011;25735;48.122;11.422;2022-12-07T00:53:06;9.32;;;7.32;;
40044;SDS011;25735;48.122;11.422;2022-12-07T00:55:32;10.38;;;7.20;;
40044;SDS011;25735;48.122;11.422;2022-12-07T00:57:58;10.32;;;7.30;;
40044;SDS011;25735;48.122;11.422;2022-12-07T01:00:23;12.60;;;7.78;;
40044;SDS011;25735;48.122;11.422;2022-12-07T01:02:49;10.27;;;6.97;;
40044;SDS011;25735;48.122;11.422;2022-12-07T01:05:14;10.23;;;7.28;;
40044;SDS011;25735;48.122;11.422;2022-12-07T01:07:39;10.05;;;7.25;;
40044;SDS011;25735;48.122;11.422;2022-12-07T01:10:05;10.13;;;7.07;;
40044;SDS011;25735;48.122;11.422;2022-12-07T01:12:31;10.13;;;7.45;;
40044;SDS011;25735;48.122;11.422;2022-12-07T01:14:56;8.82;;;6.90;;
40044;SDS011;25735;48.122;11.422;2022-12-07T01:17:21;10.30;;;7.80;;
40044;SDS011;25735;48.122;11.422;2022-12-07T01:19:46;10.70;;;8.02;;
40044;SDS011;25735;48.122;11.422;2022-12-07T01:22:12;10.93;;;7.10;;
40044;SDS011;25735;48.122;11.422;2022-12-07T01:24:37;10.15;;;7.35;;
40044;SDS011;25735;48.122;11.422;2022-12-07T01:27:02;11.18;;;8.05;;
40044;SDS011;25735;48.122;11.422;2022-12-07T01:29:27;10.30;;;7.07;;
40044;SDS011;25735;48.122;11.422;2022-12-07T01:31:53;11.52;;;8.35;;
40044;SDS011;25735;48.122;11.422;2022-12-07T01:34:18;11.65;;;8.48;;
40044;SDS011;25735;48.122;11.422;2022-12-07T01:36:43;10.13;;;7.25;;
40044;SDS011;25735;48.122;11.422;2022-12-07T01:39:09;10.05;;;7.65;;
40044;SDS011;25735;48.122;11.422;2022-12-07T01:41:36;10.73;;;7.28;;
40044;SDS011;25735;48.122;11.422;2022-12-07T01:46:39;10.85;;;7.70;;
40044;SDS011;25735;48.122;11.422;2022-12-07T01:49:05;10.00;;;7.75;;
40044;SDS011;25735;48.122;11.422;2022-12-07T01:51:33;9.63;;;7.35;;
40044;SDS011;25735;48.122;11.422;2022-12-07T01:53:59;10.35;;;7.60;;
40044;SDS011;25735;48.122;11.422;2022-12-07T01:56:26;12.68;;;8.35;;
40044;SDS011;25735;48.122;11.422;2022-12-07T01:58:53;10.52;;;7.93;;
40044;SDS011;25735;48.122;11.422;2022-12-07T02:01:21;9.95;;;7.03;;
40044;SDS011;25735;48.122;11.422;2022-12-07T02:03:47;10.95;;;7.30;;
40044;SDS011;25735;48.122;11.422;2022-12-07T02:06:14;11.52;;;7.75;;
40044;SDS011;25735;48.122;11.422;2022-12-07T02:08:43;9.02;;;6.40;;
40044;SDS011;25735;48.122;11.422;2022-12-07T02:11:09;9.68;;;6.95;;
40044;SDS011;25735;48.122;11.422;2022-12-07T02:13:35;12.25;;;7.60;;
40044;SDS011;25735;48.122;11.422;2022-12-07T02:23:41;11.18;;;7.28;;
40044;SDS011;25735;48.122;11.422;2022-12-07T02:29:13;8.95;;;7.10;;
40044;SDS011;25735;48.122;11.422;2022-12-07T02:31:46;11.00;;;8.30;;
40044;SDS011;25735;48.122;11.422;2022-12-07T02:34:20;9.75;;;6.60;;
40044;SDS011;25735;48.122;11.422;2022-12-07T02:36:52;9.57;;;6.40;;
40044;SDS011;25735;48.122;11.422;2022-12-07T02:39:30;10.65;;;7.53;;
40044;SDS011;25735;48.122;11.422;2022-12-07T02:42:02;9.98;;;7.43;;
40044;SDS011;25735;48.122;11.422;2022-12-07T02:44:37;9.68;;;6.97;;
40044;SDS011;25735;48.122;11.422;2022-12-07T02:47:05;10.38;;;7.10;;
40044;SDS011;25735;48.122;11.422;2022-12-07T02:49:32;9.20;;;6.88;;
40044;SDS011;25735;48.122;11.422;2022-12-07T02:51:57;10.85;;;7.40;;
40044;SDS011;25735;48.122;11.422;2022-12-07T02:54:22;10.75;;;7.20;;
40044;SDS011;25735;48.122;11.422;2022-12-07T03:18:14;11.45;;;7.95;;
40044;SDS011;25735;48.122;11.422;2022-12-07T03:20:43;14.90;;;8.00;;
40044;SDS011;25735;48.122;11.422;2022-12-07T03:23:11;10.90;;;8.32;;
40044;SDS011;25735;48.122;11.422;2022-12-07T03:25:41;9.18;;;7.75;;
40044;SDS011;25735;48.122;11.422;2022-12-07T03:28:10;9.80;;;7.63;;
40044;SDS011;25735;48.122;11.422;2022-12-07T03:30:42;11.27;;;8.05;;
40044;SDS011;25735;48.122;11.422;2022-12-07T03:33:19;13.75;;;8.68;;
40044;SDS011;25735;48.122;11.422;2022-12-07T03:38:33;9.52;;;7.32;;
40044;SDS011;25735;48.122;11.422;2022-12-07T03:41:08;10.95;;;7.63;;
40044;SDS011;25735;48.122;11.422;2022-12-07T03:43:36;10.82;;;8.25;;
40044;SDS011;25735;48.122;11.422;2022-12-07T03:46:17;11.98;;;7.80;;
40044;SDS011;25735;48.122;11.422;2022-12-07T03:49:31;12.70;;;8.13;;
40044;SDS011;25735;48.122;11.422;2022-12-07T03:54:19;11.85;;;7.97;;
40044;SDS011;25735;48.122;11.422;2022-12-07T03:56:49;9.95;;;7.45;;
40044;SDS011;25735;48.122;11.422;2022-12-07T03:59:16;13.35;;;8.00;;
40044;SDS011;25735;48.122;11.422;2022-12-07T04:01:43;10.50;;;7.70;;
40044;SDS011;25735;48.122;11.422;2022-12-07T04:04:08;12.52;;;8.25;;
40044;SDS011;25735;48.122;11.422;2022-12-07T04:06:34;11.13;;;7.95;;
40044;SDS011;25735;48.122;11.422;2022-12-07T04:08:59;11.20;;;8.00;;
40044;SDS011;25735;48.122;11.422;2022-12-07T04:11:24;11.18;;;7.95;;
40044;SDS011;25735;48.122;11.422;2022-12-07T04:13:50;12.25;;;8.93;;
40044;SDS011;25735;48.122;11.422;2022-12-07T04:16:33;11.45;;;8.57;;
40044;SDS011;25735;48.122;11.422;2022-12-07T04:18:58;13.02;;;9.23;;
40044;SDS011;25735;48.122;11.422;2022-12-07T04:21:24;14.55;;;9.13;;
40044;SDS011;25735;48.122;11.422;2022-12-07T04:23:49;11.98;;;8.27;;
40044;SDS011;25735;48.122;11.422;2022-12-07T04:26:14;11.48;;;8.55;;
40044;SDS011;25735;48.122;11.422;2022-12-07T04:28:39;12.40;;;9.45;;
40044;SDS011;25735;48.122;11.422;2022-12-07T04:31:05;15.68;;;9.93;;
40044;SDS011;25735;48.122;11.422;2022-12-07T04:33:30;13.60;;;10.00;;
40044;SDS011;25735;48.122;11.422;2022-12-07T04:35:55;13.38;;;9.40;;
40044;SDS011;25735;48.122;11.422;2022-12-07T04:38:20;12.85;;;8.25;;
40044;SDS011;25735;48.122;11.422;2022-12-07T04:40:46;12.27;;;8.85;;
40044;SDS011;25735;48.122;11.422;2022-12-07T04:43:11;11.95;;;9.38;;
40044;SDS011;25735;48.122;11.422;2022-12-07T04:45:36;11.70;;;8.85;;
40044;SDS011;25735;48.122;11.422;2022-12-07T04:48:02;13.27;;;8.60;;
40044;SDS011;25735;48.122;11.422;2022-12-07T04:50:27;15.48;;;9.55;;
40044;SDS011;25735;48.122;11.422;2022-12-07T04:52:52;12.85;;;9.23;;
40044;SDS011;25735;48.122;11.422;2022-12-07T04:55:17;14.98;;;10.43;;
40044;SDS011;25735;48.122;11.422;2022-12-07T04:57:43;12.55;;;9.80;;
40044;SDS011;25735;48.122;11.422;2022-12-07T05:00:08;14.55;;;10.18;;
40044;SDS011;25735;48.122;11.422;2022-12-07T05:02:34;15.35;;;9.35;;
40044;SDS011;25735;48.122;11.422;2022-12-07T05:04:59;14.10;;;9.55;;
40044;SDS011;25735;48.122;11.422;2022-12-07T05:07:24;13.27;;;9.20;;
40044;SDS011;25735;48.122;11.422;2022-12-07T05:09:49;12.73;;;9.00;;
40044;SDS011;25735;48.122;11.422;2022-12-07T05:12:15;13.63;;;9.07;;
40044;SDS011;25735;48.122;11.422;2022-12-07T05:14:40;13.40;;;9.75;;
40044;SDS011;25735;48.122;11.422;2022-12-07T05:17:05;13.35;;;8.85;;
40044;SDS011;25735;48.122;11.422;2022-12-07T05:19:30;12.25;;;9.15;;
40044;SDS011;25735;48.122;11.422;2022-12-07T05:21:56;15.82;;;10.88;;
40044;SDS011;25735;48.122;11.422;2022-12-07T05:24:21;13.20;;;8.77;;
40044;SDS011;25735;48.122;11.422;2022-12-07T05:26:46;14.70;;;10.27;;
40044;SDS011;25735;48.122;11.422;2022-12-07T05:29:15;14.95;;;10.93;;
40044;SDS011;25735;48.122;11.422;2022-12-07T05:31:41;11.98;;;9.02;;
40044;SDS011;25735;48.122;11.422;2022-12-07T05:34:08;13.75;;;10.05;;
40044;SDS011;25735;48.122;11.422;2022-12-07T05:36:33;14.10;;;9.40;;
40044;SDS011;25735;48.122;11.422;2022-12-07T05:38:59;13.65;;;9.65;;
40044;SDS011;25735;48.122;11.422;2022-12-07T05:41:24;12.70;;;8.82;;
40044;SDS011;25735;48.122;11.422;2022-12-07T05:44:08;16.60;;;10.00;;
40044;SDS011;25735;48.122;11.422;2022-12-07T05:46:33;13.30;;;9.30;;
40044;SDS011;25735;48.122;11.422;2022-12-07T05:48:59;13.38;;;9.48;;
40044;SDS011;25735;48.122;11.422;2022-12-07T05:51:24;14.77;;;10.20;;
40044;SDS011;25735;48.122;11.422;2022-12-07T05:53:50;14.55;;;9.73;;
40044;SDS011;25735;48.122;11.422;2022-12-07T05:56:15;19.13;;;10.88;;
40044;SDS011;25735;48.122;11.422;2022-12-07T05:58:40;16.90;;;10.25;;
40044;SDS011;25735;48.122;11.422;2022-12-07T06:01:24;17.65;;;9.93;;
40044;SDS011;25735;48.122;11.422;2022-12-07T06:03:50;14.35;;;9.80;;
40044;SDS011;25735;48.122;11.422;2022-12-07T06:06:15;15.77;;;10.00;;
40044;SDS011;25735;48.122;11.422;2022-12-07T06:08:40;14.35;;;9.90;;
40044;SDS011;25735;48.122;11.422;2022-12-07T06:11:06;14.57;;;9.52;;
40044;SDS011;25735;48.122;11.422;2022-12-07T06:13:50;13.90;;;9.43;;
40044;SDS011;25735;48.122;11.422;2022-12-07T06:16:15;12.85;;;10.00;;
40044;SDS011;25735;48.122;11.422;2022-12-07T06:18:40;15.00;;;10.40;;
40044;SDS011;25735;48.122;11.422;2022-12-07T06:21:05;14.10;;;10.05;;
40044;SDS011;25735;48.122;11.422;2022-12-07T06:23:31;16.05;;;10.45;;
40044;SDS011;25735;48.122;11.422;2022-12-07T06:25:56;13.73;;;9.43;;
40044;SDS011;25735;48.122;11.422;2022-12-07T06:28:21;15.95;;;10.35;;
40044;SDS011;25735;48.122;11.422;2022-12-07T06:30:46;15.93;;;10.30;;
40044;SDS011;25735;48.122;11.422;2022-12-07T06:33:12;12.75;;;9.20;;
40044;SDS011;25735;48.122;11.422;2022-12-07T06:35:37;15.98;;;10.57;;
40044;SDS011;25735;48.122;11.422;2022-12-07T06:38:02;14.77;;;9.13;;
40044;SDS011;25735;48.122;11.422;2022-12-07T06:40:27;14.35;;;10.43;;
40044;SDS011;25735;48.122;11.422;2022-12-07T06:42:53;16.55;;;10.43;;
40044;SDS011;25735;48.122;11.422;2022-12-07T06:45:18;14.85;;;9.90;;
40044;SDS011;25735;48.122;11.422;2022-12-07T06:47:43;14.57;;;10.68;;
40044;SDS011;25735;48.122;11.422;2022-12-07T06:50:08;21.33;;;11.43;;
40044;SDS011;25735;48.122;11.422;2022-12-07T06:52:34;17.10;;;9.98;;
40044;SDS011;25735;48.122;11.422;2022-12-07T06:54:59;12.98;;;8.45;;
40044;SDS011;25735;48.122;11.422;2022-12-07T06:57:25;14.65;;;10.68;;
40044;SDS011;25735;48.122;11.422;2022-12-07T06:59:50;14.77;;;10.25;;
40044;SDS011;25735;48.122;11.422;2022-12-07T07:02:16;16.95;;;10.60;;
40044;SDS011;25735;48.122;11.422;2022-12-07T07:04:41;15.32;;;9.77;;
40044;SDS011;25735;48.122;11.422;2022-12-07T07:07:06;14.10;;;9.50;;
40044;SDS011;25735;48.122;11.422;2022-12-07T07:09:32;15.40;;;9.93;;
40044;SDS011;25735;48.122;11.422;2022-12-07T07:11:57;15.25;;;9.30;;
40044;SDS011;25735;48.122;11.422;2022-12-07T07:14:22;15.68;;;10.50;;
40044;SDS011;25735;48.122;11.422;2022-12-07T07:16:47;13.07;;;9.70;;
40044;SDS011;25735;48.122;11.422;2022-12-07T07:19:13;17.00;;;11.82;;
40044;SDS011;25735;48.122;11.422;2022-12-07T07:21:38;15.68;;;10.27;;
40044;SDS011;25735;48.122;11.422;2022-12-07T07:24:03;16.92;;;11.85;;
40044;SDS011;25735;48.122;11.422;2022-12-07T07:26:29;16.20;;;11.02;;
40044;SDS011;25735;48.122;11.422;2022-12-07T07:28:55;15.07;;;10.90;;
40044;SDS011;25735;48.122;11.422;2022-12-07T07:31:20;16.13;;;11.27;;
40044;SDS011;25735;48.122;11.422;2022-12-07T07:33:45;17.48;;;10.65;;
40044;SDS011;25735;48.122;11.422;2022-12-07T07:36:11;17.08;;;11.68;;
40044;SDS011;25735;48.122;11.422;2022-12-07T07:38:37;17.80;;;12.10;;
40044;SDS011;25735;48.122;11.422;2022-12-07T07:41:02;20.92;;;12.18;;
40044;SDS011;25735;48.122;11.422;2022-12-07T07:43:27;16.08;;;10.95;;
40044;SDS011;25735;48.122;11.422;2022-12-07T07:45:53;15.73;;;10.65;;
40044;SDS011;25735;48.122;11.422;2022-12-07T07:48:18;17.17;;;11.70;;
40044;SDS011;25735;48.122;11.422;2022-12-07T07:50:43;16.60;;;11.23;;
40044;SDS011;25735;48.122;11.422;2022-12-07T07:53:08;16.60;;;11.30;;
40044;SDS011;25735;48.122;11.422;2022-12-07T07:55:34;16.35;;;11.45;;
40044;SDS011;25735;48.122;11.422;2022-12-07T07:57:59;16.90;;;10.68;;
40044;SDS011;25735;48.122;11.422;2022-12-07T08:00:24;18.33;;;11.88;;
40044;SDS011;25735;48.122;11.422;2022-12-07T08:02:49;17.05;;;11.05;;
40044;SDS011;25735;48.122;11.422;2022-12-07T08:05:15;15.45;;;10.88;;
40044;SDS011;25735;48.122;11.422;2022-12-07T08:07:41;15.98;;;10.82;;
40044;SDS011;25735;48.122;11.422;2022-12-07T08:10:06;18.70;;;11.40;;
40044;SDS011;25735;48.122;11.422;2022-12-07T08:12:35;17.55;;;11.23;;
40044;SDS011;25735;48.122;11.422;2022-12-07T08:15:00;15.10;;;10.55;;
40044;SDS011;25735;48.122;11.422;2022-12-07T08:17:26;18.40;;;11.43;;
40044;SDS011;25735;48.122;11.422;2022-12-07T08:19:52;17.83;;;12.02;;
40044;SDS011;25735;48.122;11.422;2022-12-07T08:22:17;17.00;;;11.00;;
40044;SDS011;25735;48.122;11.422;2022-12-07T08:24:42;15.40;;;10.38;;
40044;SDS011;25735;48.122;11.422;2022-12-07T08:27:07;16.80;;;11.55;;
40044;SDS011;25735;48.122;11.422;2022-12-07T08:29:32;17.52;;;11.35;;
40044;SDS011;25735;48.122;11.422;2022-12-07T08:31:58;17.73;;;11.68;;
40044;SDS011;25735;48.122;11.422;2022-12-07T08:34:25;18.17;;;11.90;;
40044;SDS011;25735;48.122;11.422;2022-12-07T08:36:50;17.70;;;11.05;;
40044;SDS011;25735;48.122;11.422;2022-12-07T08:39:16;18.10;;;11.43;;
40044;SDS011;25735;48.122;11.422;2022-12-07T08:41:41;16.02;;;11.10;;
40044;SDS011;25735;48.122;11.422;2022-12-07T08:44:06;16.45;;;11.82;;
40044;SDS011;25735;48.122;11.422;2022-12-07T08:46:51;16.90;;;10.88;;
40044;SDS011;25735;48.122;11.422;2022-12-07T08:49:25;15.07;;;10.35;;
40044;SDS011;25735;48.122;11.422;2022-12-07T08:51:54;17.08;;;10.43;;
40044;SDS011;25735;48.122;11.422;2022-12-07T08:54:20;15.48;;;9.82;;
40044;SDS011;25735;48.122;11.422;2022-12-07T08:56:45;13.60;;;10.25;;
40044;SDS011;25735;48.122;11.422;2022-12-07T08:59:13;15.68;;;11.18;;
40044;SDS011;25735;48.122;11.422;2022-12-07T09:01:40;14.27;;;9.75;;
40044;SDS011;25735;48.122;11.422;2022-12-07T09:04:06;15.20;;;10.60;;
40044;SDS011;25735;48.122;11.422;2022-12-07T09:06:31;14.70;;;9.85;;
40044;SDS011;25735;48.122;11.422;2022-12-07T09:08:57;14.18;;;9.85;;
40044;SDS011;25735;48.122;11.422;2022-12-07T09:11:23;15.65;;;10.32;;
40044;SDS011;25735;48.122;11.422;2022-12-07T09:13:49;14.70;;;10.85;;
40044;SDS011;25735;48.122;11.422;2022-12-07T09:16:14;16.60;;;10.93;;
40044;SDS011;25735;48.122;11.422;2022-12-07T09:18:39;17.85;;;11.10;;
40044;SDS011;25735;48.122;11.422;2022-12-07T09:21:05;17.20;;;11.02;;
40044;SDS011;25735;48.122;11.422;2022-12-07T09:23:30;15.88;;;10.95;;
40044;SDS011;25735;48.122;11.422;2022-12-07T09:25:58;15.27;;;11.20;;
40044;SDS011;25735;48.122;11.422;2022-12-07T09:28:25;14.68;;;10.23;;
40044;SDS011;25735;48.122;11.422;2022-12-07T09:30:50;14.98;;;9.82;;
40044;SDS011;25735;48.122;11.422;2022-12-07T09:33:16;15.93;;;11.38;;
40044;SDS011;25735;48.122;11.422;2022-12-07T09:35:45;13.35;;;9.98;;
40044;SDS011;25735;48.122;11.422;2022-12-07T09:38:11;16.60;;;10.48;;
40044;SDS011;25735;48.122;11.422;2022-12-07T09:40:37;12.40;;;9.10;;
40044;SDS011;25735;48.122;11.422;2022-12-07T09:43:02;10.82;;;7.82;;
40044;SDS011;25735;48.122;11.422;2022-12-07T09:45:31;13.85;;;9.60;;
40044;SDS011;25735;48.122;11.422;2022-12-07T09:48:00;15.65;;;10.45;;
40044;SDS011;25735;48.122;11.422;2022-12-07T09:50:27;14.07;;;9.45;;
40044;SDS011;25735;48.122;11.422;2022-12-07T09:52:54;14.27;;;10.38;;
40044;SDS011;25735;48.122;11.422;2022-12-07T09:55:33;13.45;;;8.77;;
40044;SDS011;25735;48.122;11.422;2022-12-07T09:57:59;12.02;;;9.00;;
40044;SDS011;25735;48.122;11.422;2022-12-07T10:00:24;13.43;;;8.65;;
40044;SDS011;25735;48.122;11.422;2022-12-07T10:02:59;11.80;;;7.88;;
40044;SDS011;25735;48.122;11.422;2022-12-07T10:05:30;10.77;;;8.10;;
40044;SDS011;25735;48.122;11.422;2022-12-07T10:08:12;11.88;;;8.90;;
40044;SDS011;25735;48.122;11.422;2022-12-07T10:10:38;13.25;;;8.38;;
40044;SDS011;25735;48.122;11.422;2022-12-07T10:13:11;11.75;;;8.32;;
40044;SDS011;25735;48.122;11.422;2022-12-07T10:18:14;10.07;;;7.35;;
40044;SDS011;25735;48.122;11.422;2022-12-07T10:20:43;11.77;;;8.32;;
40044;SDS011;25735;48.122;11.422;2022-12-07T10:23:16;12.43;;;8.88;;
40044;SDS011;25735;48.122;11.422;2022-12-07T10:25:43;9.75;;;6.95;;
40044;SDS011;25735;48.122;11.422;2022-12-07T10:31:24;9.18;;;6.90;;
40044;SDS011;25735;48.122;11.422;2022-12-07T10:36:23;8.30;;;6.30;;
40044;SDS011;25735;48.122;11.422;2022-12-07T10:38:49;9.13;;;6.38;;
40044;SDS011;25735;48.122;11.422;2022-12-07T10:41:54;7.55;;;5.25;;
40044;SDS011;25735;48.122;11.422;2022-12-07T10:44:23;8.43;;;6.30;;
40044;SDS011;25735;48.122;11.422;2022-12-07T11:01:24;9.20;;;5.90;;
40044;SDS011;25735;48.122;11.422;2022-12-07T11:06:48;6.93;;;5.32;;
40044;SDS011;25735;48.122;11.422;2022-12-07T11:20:42;9.70;;;6.57;;
40044;SDS011;25735;48.122;11.422;2022-12-07T11:26:00;10.23;;;7.53;;
40044;SDS011;25735;48.122;11.422;2022-12-07T11:34:08;8.88;;;6.72;;
40044;SDS011;25735;48.122;11.422;2022-12-07T11:36:44;12.18;;;6.20;;
40044;SDS011;25735;48.122;11.422;2022-12-07T11:39:33;5.93;;;5.32;;
40044;SDS011;25735;48.122;11.422;2022-12-07T11:42:15;7.50;;;5.53;;
40044;SDS011;25735;48.122;11.422;2022-12-07T11:44:47;7.70;;;5.60;;
40044;SDS011;25735;48.122;11.422;2022-12-07T11:47:38;6.75;;;5.30;;
40044;SDS011;25735;48.122;11.422;2022-12-07T12:00:54;8.88;;;5.45;;
40044;SDS011;25735;48.122;11.422;2022-12-07T12:03:34;8.07;;;5.50;;
40044;SDS011;25735;48.122;11.422;2022-12-07T12:06:02;6.60;;;5.15;;
40044;SDS011;25735;48.122;11.422;2022-12-07T12:08:30;7.25;;;5.40;;
40044;SDS011;25735;48.122;11.422;2022-12-07T12:11:03;8.57;;;6.22;;
40044;SDS011;25735;48.122;11.422;2022-12-07T12:22:25;6.85;;;5.22;;
40044;SDS011;25735;48.122;11.422;2022-12-07T12:24:58;6.78;;;5.38;;
40044;SDS011;25735;48.122;11.422;2022-12-07T12:27:25;7.20;;;5.40;;
40044;SDS011;25735;48.122;11.422;2022-12-07T12:29:55;7.20;;;4.82;;
40044;SDS011;25735;48.122;11.422;2022-12-07T12:32:28;7.68;;;5.50;;
40044;SDS011;25735;48.122;11.422;2022-12-07T12:35:03;6.53;;;4.35;;
40044;SDS011;25735;48.122;11.422;2022-12-07T12:37:48;6.75;;;4.57;;
40044;SDS011;25735;48.122;11.422;2022-12-07T12:42:46;7.07;;;4.53;;
40044;SDS011;25735;48.122;11.422;2022-12-07T12:45:33;7.70;;;5.25;;
40044;SDS011;25735;48.122;11.422;2022-12-07T12:54:05;6.82;;;4.65;;
40044;SDS011;25735;48.122;11.422;2022-12-07T12:56:52;7.25;;;4.70;;
40044;SDS011;25735;48.122;11.422;2022-12-07T13:02:09;8.80;;;6.07;;
40044;SDS011;25735;48.122;11.422;2022-12-07T13:04:59;8.05;;;6.07;;
40044;SDS011;25735;48.122;11.422;2022-12-07T13:12:58;7.45;;;4.50;;
40044;SDS011;25735;48.122;11.422;2022-12-07T13:26:20;6.63;;;4.70;;
40044;SDS011;25735;48.122;11.422;2022-12-07T13:28:52;9.93;;;5.50;;
40044;SDS011;25735;48.122;11.422;2022-12-07T13:31:54;5.93;;;4.75;;
40044;SDS011;25735;48.122;11.422;2022-12-07T13:37:31;7.45;;;5.22;;
40044;SDS011;25735;48.122;11.422;2022-12-07T13:39:55;7.70;;;5.55;;
40044;SDS011;25735;48.122;11.422;2022-12-07T13:44:51;6.28;;;4.30;;
40044;SDS011;25735;48.122;11.422;2022-12-07T13:47:17;6.05;;;4.50;;
40044;SDS011;25735;48.122;11.422;2022-12-07T13:49:56;6.50;;;4.32;;
40044;SDS011;25735;48.122;11.422;2022-12-07T13:52:23;6.25;;;4.75;;
40044;SDS011;25735;48.122;11.422;2022-12-07T13:55:14;6.88;;;4.35;;
40044;SDS011;25735;48.122;11.422;2022-12-07T13:57:39;6.18;;;3.78;;
40044;SDS011;25735;48.122;11.422;2022-12-07T14:00:13;4.82;;;3.45;;
40044;SDS011;25735;48.122;11.422;2022-12-07T14:05:26;5.25;;;3.88;;
40044;SDS011;25735;48.122;11.422;2022-12-07T14:08:00;5.03;;;3.58;;
40044;SDS011;25735;48.122;11.422;2022-12-07T14:15:55;5.90;;;3.70;;
40044;SDS011;25735;48.122;11.422;2022-12-07T14:18:26;5.05;;;3.50;;
40044;SDS011;25735;48.122;11.422;2022-12-07T14:21:13;6.45;;;3.60;;
40044;SDS011;25735;48.122;11.422;2022-12-07T14:23:43;5.97;;;3.72;;
40044;SDS011;25735;48.122;11.422;2022-12-07T14:26:18;5.45;;;3.47;;
40044;SDS011;25735;48.122;11.422;2022-12-07T14:28:45;7.20;;;4.25;;
40044;SDS011;25735;48.122;11.422;2022-12-07T14:31:13;7.55;;;3.65;;
40044;SDS011;25735;48.122;11.422;2022-12-07T14:33:42;7.82;;;4.07;;
40044;SDS011;25735;48.122;11.422;2022-12-07T14:36:11;5.97;;;4.20;;
40044;SDS011;25735;48.122;11.422;2022-12-07T14:38:37;6.22;;;4.35;;
40044;SDS011;25735;48.122;11.422;2022-12-07T14:41:03;6.82;;;4.95;;
40044;SDS011;25735;48.122;11.422;2022-12-07T14:43:50;6.45;;;4.10;;
40044;SDS011;25735;48.122;11.422;2022-12-07T14:46:15;6.50;;;4.63;;
40044;SDS011;25735;48.122;11.422;2022-12-07T14:48:40;6.20;;;4.07;;
40044;SDS011;25735;48.122;11.422;2022-12-07T14:51:07;7.13;;;4.38;;
40044;SDS011;25735;48.122;11.422;2022-12-07T14:53:37;7.07;;;4.55;;
40044;SDS011;25735;48.122;11.422;2022-12-07T14:56:06;5.75;;;4.07;;
40044;SDS011;25735;48.122;11.422;2022-12-07T14:58:33;6.07;;;4.20;;
40044;SDS011;25735;48.122;11.422;2022-12-07T15:00:58;6.88;;;3.97;;
40044;SDS011;25735;48.122;11.422;2022-12-07T15:03:24;6.85;;;4.53;;
40044;SDS011;25735;48.122;11.422;2022-12-07T15:05:49;6.93;;;4.10;;
40044;SDS011;25735;48.122;11.422;2022-12-07T15:08:14;6.32;;;4.30;;
40044;SDS011;25735;48.122;11.422;2022-12-07T15:10:40;6.72;;;4.32;;
40044;SDS011;25735;48.122;11.422;2022-12-07T15:13:05;5.90;;;3.70;;
40044;SDS011;25735;48.122;11.422;2022-12-07T15:15:50;5.40;;;3.80;;
40044;SDS011;25735;48.122;11.422;2022-12-07T15:18:16;6.65;;;4.07;;
40044;SDS011;25735;48.122;11.422;2022-12-07T15:20:42;5.05;;;3.83;;
40044;SDS011;25735;48.122;11.422;2022-12-07T15:23:09;7.32;;;4.85;;
40044;SDS011;25735;48.122;11.422;2022-12-07T15:25:35;6.13;;;4.00;;
40044;SDS011;25735;48.122;11.422;2022-12-07T15:28:00;12.00;;;7.35;;
40044;SDS011;25735;48.122;11.422;2022-12-07T15:30:25;14.52;;;8.20;;
40044;SDS011;25735;48.122;11.422;2022-12-07T15:32:51;52.92;;;26.38;;
40044;SDS011;25735;48.122;11.422;2022-12-07T15:35:17;23.00;;;13.85;;
40044;SDS011;25735;48.122;11.422;2022-12-07T15:37:43;22.35;;;14.10;;
40044;SDS011;25735;48.122;11.422;2022-12-07T15:40:08;17.75;;;10.98;;
40044;SDS011;25735;48.122;11.422;2022-12-07T15:42:35;7.93;;;4.30;;
40044;SDS011;25735;48.122;11.422;2022-12-07T15:45:01;8.73;;;4.95;;
40044;SDS011;25735;48.122;11.422;2022-12-07T15:47:36;7.03;;;4.30;;
40044;SDS011;25735;48.122;11.422;2022-12-07T15:50:03;9.50;;;4.65;;
40044;SDS011;25735;48.122;11.422;2022-12-07T15:52:30;9.77;;;5.20;;
40044;SDS011;25735;48.122;11.422;2022-12-07T15:54:56;8.27;;;5.70;;
40044;SDS011;25735;48.122;11.422;2022-12-07T15:57:21;8.80;;;5.43;;
40044;SDS011;25735;48.122;11.422;2022-12-07T15:59:47;15.82;;;7.68;;
40044;SDS011;25735;48.122;11.422;2022-12-07T16:02:12;8.57;;;5.85;;
40044;SDS011;25735;48.122;11.422;2022-12-07T16:04:38;7.95;;;4.88;;
40044;SDS011;25735;48.122;11.422;2022-12-07T16:07:03;7.50;;;4.35;;
40044;SDS011;25735;48.122;11.422;2022-12-07T16:09:29;8.80;;;5.65;;
40044;SDS011;25735;48.122;11.422;2022-12-07T16:11:54;8.05;;;5.68;;
40044;SDS011;25735;48.122;11.422;2022-12-07T16:14:20;7.18;;;4.75;;
40044;SDS011;25735;48.122;11.422;2022-12-07T16:16:46;7.38;;;5.10;;
40044;SDS011;25735;48.122;11.422;2022-12-07T16:19:12;6.60;;;4.68;;
40044;SDS011;25735;48.122;11.422;2022-12-07T16:21:37;8.20;;;4.32;;
40044;SDS011;25735;48.122;11.422;2022-12-07T16:24:02;6.25;;;4.60;;
40044;SDS011;25735;48.122;11.422;2022-12-07T16:26:28;8.68;;;5.65;;
40044;SDS011;25735;48.122;11.422;2022-12-07T16:28:53;9.32;;;5.30;;
40044;SDS011;25735;48.122;11.422;2022-12-07T16:31:21;7.28;;;5.00;;
40044;SDS011;25735;48.122;11.422;2022-12-07T16:33:48;8.00;;;5.47;;
40044;SDS011;25735;48.122;11.422;2022-12-07T16:36:14;9.00;;;4.80;;
40044;SDS011;25735;48.122;11.422;2022-12-07T16:38:41;8.48;;;5.13;;
40044;SDS011;25735;48.122;11.422;2022-12-07T16:41:07;6.40;;;5.07;;
40044;SDS011;25735;48.122;11.422;2022-12-07T16:43:33;9.95;;;5.85;;
40044;SDS011;25735;48.122;11.422;2022-12-07T16:45:59;9.68;;;5.93;;
40044;SDS011;25735;48.122;11.422;2022-12-07T16:48:25;8.75;;;5.68;;
40044;SDS011;25735;48.122;11.422;2022-12-07T16:50:50;8.65;;;5.65;;
40044;SDS011;25735;48.122;11.422;2022-12-07T16:53:18;11.05;;;6.72;;
40044;SDS011;25735;48.122;11.422;2022-12-07T16:55:44;11.65;;;6.55;;
40044;SDS011;25735;48.122;11.422;2022-12-07T16:58:13;12.35;;;6.35;;